Airports

 

 

Airport Name Latest METAR Visual Conditions
Atlantic City Int. (ACY) KACY 050154Z 19010KT 10SM CLR 24/20 A2994 RMK AO2 SLP138 T02440200 VFR
Baltimore International Airport (BWI) KBWI 050154Z COR 21008KT 10SM FEW040 BKN110 23/20 A2992 RMK AO2 RAB04E54 TSB34E54 SLP131 OCNL LTGIC DSNT NE TS MOVD E CB DSNT NE MOV E P0001 T02280200 VFR
Washington National Airport (DCA) KDCA 050200Z VRB04KT 6SM RA SCT038CB BKN060 BKN250 25/22 A2993 RMK AO2 RAB0154 CB ALQDS MOV E P0001 T02500217 VFR
Dulles International Airport (IAD) KIAD 050152Z VRB03KT 10SM FEW045TCU SCT100 24/22 A2993 RMK AO2 SLP134 TCU E T02440217 VFR
Norfolk International Airport (ORF) KORF 050151Z AUTO 19007KT 10SM CLR 28/22 A2997 RMK AO2 SLP149 T02830222 VFR
Raleigh International Airport (RDU) KRDU 050151Z 00000KT 10SM FEW250 25/22 A2999 RMK AO2 SLP151 T02500217 VFR
Richmond International Airport (RIC) KRIC 050154Z 19005KT 10SM BKN140 26/22 A2995 RMK AO2 SLP146 T02610222 VFR
Roanoke Regional Airport (ROA) KROA 050154Z 26003KT 10SM BKN140 26/18 A3003 RMK AO2 SLP154 T02560178 $ VFR